Time;durP1;ratioP1;P1;durP2;ratioP2;P2;SDS_P1;SDS_P2;PMS_P1;PMS_P2;Temp;Humidity;BMP_temperature;BMP_pressure;BME280_temperature;BME280_humidity;BME280_pressure;Samples;Min_cycle;Max_cycle;Signal;HPM_P1;HPM_P2
2023/01/12 00:01:48;;;;;;;9.73;8.73;;;;;;;7.98;100.00;99504.56;5069076;28;20283;-58
2023/01/12 00:04:15;;;;;;;9.50;8.60;;;;;;;8.08;100.00;99509.56;5066701;28;20195;-57
2023/01/12 00:06:44;;;;;;;8.73;7.83;;;;;;;8.08;100.00;99500.09;5069076;28;20203;-57
2023/01/12 00:09:11;;;;;;;11.37;8.60;;;;;;;8.11;100.00;99509.53;5068836;28;20188;-57
2023/01/12 00:11:38;;;;;;;8.93;8.03;;;;;;;8.16;100.00;99508.53;5069039;28;20223;-58
2023/01/12 00:14:07;;;;;;;10.27;8.50;;;;;;;8.19;100.00;99512.81;5069229;28;20204;-57
2023/01/12 00:16:39;;;;;;;9.20;8.30;;;;;;;8.19;100.00;99515.38;5066133;28;20199;-58
2023/01/12 00:19:11;;;;;;;12.07;10.17;;;;;;;8.29;100.00;99516.91;5068870;28;20202;-58
2023/01/12 00:21:55;;;;;;;13.00;11.57;;;;;;;8.30;100.00;99516.03;5066608;28;20192;-57
2023/01/12 00:24:24;;;;;;;14.90;12.27;;;;;;;8.26;100.00;99502.31;5067362;28;20218;-59
2023/01/12 00:26:51;;;;;;;13.60;10.93;;;;;;;8.33;100.00;99523.78;5068434;28;20289;-58
2023/01/12 00:29:18;;;;;;;10.67;8.73;;;;;;;8.38;100.00;99529.69;5068709;28;20196;-57
2023/01/12 00:31:46;;;;;;;8.70;8.00;;;;;;;8.33;100.00;99532.38;5068569;28;20680;-59
2023/01/12 00:34:13;;;;;;;9.47;8.57;;;;;;;8.38;100.00;99538.31;5068998;28;20202;-58
2023/01/12 00:36:40;;;;;;;9.27;8.37;;;;;;;8.43;100.00;99540.81;5068771;28;20211;-57
2023/01/12 00:39:07;;;;;;;8.90;8.00;;;;;;;8.39;100.00;99541.75;5068864;28;20684;-58
2023/01/12 00:47:06;;;;;;;9.70;7.73;;;;;;;8.22;100.00;99543.78;5067322;28;20198;-57
2023/01/12 00:49:33;;;;;;;9.53;8.57;;;;;;;8.23;100.00;99540.31;5068417;28;20196;-58
2023/01/12 00:52:00;;;;;;;9.53;8.00;;;;;;;8.24;100.00;99537.69;5068046;28;20223;-57
2023/01/12 00:54:27;;;;;;;9.50;8.43;;;;;;;8.25;100.00;99543.69;5068617;28;20661;-58
2023/01/12 00:56:56;;;;;;;8.57;7.77;;;;;;;8.13;100.00;99529.28;5068425;28;20595;-57
2023/01/12 00:59:23;;;;;;;9.13;7.67;;;;;;;8.11;100.00;99538.81;5068226;28;20200;-58
2023/01/12 01:01:49;;;;;;;10.23;7.27;;;;;;;8.10;100.00;99538.84;5068432;28;20196;-59
2023/01/12 01:04:16;;;;;;;8.73;7.93;;;;;;;8.12;100.00;99537.94;5068513;28;20702;-59
2023/01/12 01:06:43;;;;;;;9.03;7.73;;;;;;;8.10;100.00;99542.28;5068232;28;20669;-59
2023/01/12 01:09:10;;;;;;;10.47;8.40;;;;;;;8.03;100.00;99538.06;5069544;28;20580;-58
2023/01/12 01:11:38;;;;;;;9.00;8.10;;;;;;;8.03;100.00;99538.94;5072211;28;20331;-57
2023/01/12 01:14:06;;;;;;;8.77;7.97;;;;;;;8.13;100.00;99538.75;5072419;28;20200;-58
2023/01/12 01:16:33;;;;;;;8.93;8.13;;;;;;;8.13;100.00;99549.09;5072239;28;20235;-58
2023/01/12 01:19:02;;;;;;;10.67;8.03;;;;;;;8.13;100.00;99544.78;5072346;28;20196;-60
2023/01/12 01:21:29;;;;;;;9.37;8.47;;;;;;;8.23;100.00;99555.84;5072360;28;20569;-58
2023/01/12 01:23:55;;;;;;;10.27;8.20;;;;;;;8.23;100.00;99554.09;5069785;28;20690;-58
2023/01/12 01:26:24;;;;;;;9.50;8.60;;;;;;;8.23;100.00;99558.41;5071974;28;20242;-59
2023/01/12 01:28:51;;;;;;;8.50;7.70;;;;;;;8.29;100.00;99556.56;5072129;28;20660;-59
2023/01/12 01:31:22;;;;;;;9.87;8.87;;;;;;;8.29;100.00;99555.69;5072149;28;20214;-59
2023/01/12 01:33:50;;;;;;;8.70;7.83;;;;;;;8.24;100.00;99550.59;5071745;28;20266;-59
2023/01/12 01:36:18;;;;;;;8.70;7.90;;;;;;;8.25;100.00;99548.88;5071929;28;20230;-60
2023/01/12 01:38:46;;;;;;;9.23;8.10;;;;;;;8.24;100.00;99550.59;5071604;28;20198;-59
2023/01/12 01:41:19;;;;;;;8.43;7.63;;;;;;;8.25;100.00;99541.13;5072105;28;20192;-60
2023/01/12 01:43:55;;;;;;;9.23;8.37;;;;;;;8.21;100.00;99539.50;5071848;28;20211;-59
2023/01/12 01:46:40;;;;;;;8.50;7.70;;;;;;;8.23;100.00;99550.66;5070093;28;20188;-59
2023/01/12 01:49:30;;;;;;;7.73;7.00;;;;;;;8.14;100.00;99543.03;5070560;28;20236;-59
2023/01/12 01:52:00;;;;;;;8.40;7.53;;;;;;;8.10;100.00;99539.69;5068951;28;20200;-58
2023/01/12 01:54:30;;;;;;;7.03;6.43;;;;;;;8.07;100.00;99536.31;5071763;28;20204;-59
2023/01/12 01:56:58;;;;;;;7.87;7.13;;;;;;;8.10;100.00;99533.66;5069481;28;20583;-58
2023/01/12 01:59:28;;;;;;;7.47;6.87;;;;;;;8.06;100.00;99535.44;5071694;28;20202;-59
2023/01/12 02:01:56;;;;;;;7.80;7.00;;;;;;;8.11;100.00;99540.53;5068799;28;20201;-58
2023/01/12 02:04:24;;;;;;;7.30;6.63;;;;;;;7.97;100.00;99533.03;5071457;28;20192;-58
2023/01/12 02:06:51;;;;;;;7.27;6.57;;;;;;;7.95;100.00;99530.47;5071374;28;20604;-58
2023/01/12 02:09:21;;;;;;;7.37;6.77;;;;;;;8.01;100.00;99535.50;5071541;28;20196;-58
2023/01/12 02:17:34;;;;;;;6.87;6.17;;;;;;;7.79;100.00;99528.19;5069130;28;20714;-58
2023/01/12 02:20:35;;;;;;;7.10;6.40;;;;;;;7.88;100.00;99538.38;5069708;28;20279;-58
2023/01/12 02:23:47;;;;;;;7.03;6.33;;;;;;;7.79;100.00;99539.34;5069402;28;20196;-58
2023/01/12 02:26:45;;;;;;;7.10;6.40;;;;;;;7.70;100.00;99544.69;5070883;28;20223;-57
2023/01/12 02:29:48;;;;;;;7.10;6.50;;;;;;;7.76;100.00;99548.91;5070825;28;20200;-58
2023/01/12 02:32:25;;;;;;;7.00;6.40;;;;;;;7.82;100.00;99533.28;5068384;28;20202;-58
2023/01/12 02:35:05;;;;;;;6.43;5.83;;;;;;;7.85;100.00;99543.59;5070774;28;20548;-58
2023/01/12 02:37:38;;;;;;;6.33;5.83;;;;;;;7.82;100.00;99539.31;5070809;28;20188;-58
2023/01/12 02:40:09;;;;;;;7.77;5.80;;;;;;;7.85;100.00;99538.41;5070950;28;20561;-58
2023/01/12 02:42:40;;;;;;;6.17;5.67;;;;;;;7.86;100.00;99530.66;5068121;28;20196;-57
2023/01/12 02:45:15;;;;;;;6.00;5.50;;;;;;;7.84;100.00;99527.22;5070800;28;20199;-57
2023/01/12 02:47:48;;;;;;;6.57;5.97;;;;;;;7.89;100.00;99528.00;5068508;28;20195;-57
2023/01/12 02:50:21;;;;;;;6.03;5.53;;;;;;;7.87;100.00;99527.19;5067828;28;20198;-57
2023/01/12 02:52:57;;;;;;;6.37;5.67;;;;;;;7.87;100.00;99534.94;5070618;28;20224;-56
2023/01/12 02:55:26;;;;;;;5.97;5.37;;;;;;;7.86;100.00;99535.81;5069002;28;20202;-59
2023/01/12 02:57:54;;;;;;;6.33;5.73;;;;;;;7.85;100.00;99534.09;5070275;28;20283;-59
2023/01/12 03:00:22;;;;;;;6.00;5.50;;;;;;;7.86;100.00;99529.78;5070478;28;20200;-59
2023/01/12 03:02:50;;;;;;;5.57;5.17;;;;;;;7.81;100.00;99534.16;5070639;28;20269;-58
2023/01/12 03:05:17;;;;;;;5.90;5.43;;;;;;;7.79;100.00;99535.94;5068067;28;20238;-58
2023/01/12 03:07:48;;;;;;;5.87;5.37;;;;;;;7.74;100.00;99533.44;5070267;28;20203;-59
2023/01/12 03:10:35;;;;;;;5.53;5.03;;;;;;;7.75;100.00;99542.91;5070323;28;20191;-59
2023/01/12 03:13:06;;;;;;;5.53;5.03;;;;;;;7.76;100.00;99544.59;5068435;28;20211;-59
2023/01/12 03:15:35;;;;;;;5.93;5.43;;;;;;;7.65;100.00;99533.59;5070384;28;20202;-57
2023/01/12 03:18:13;;;;;;;5.93;5.43;;;;;;;7.65;100.00;99546.50;5070288;28;20200;-58
2023/01/12 03:20:47;;;;;;;4.97;4.57;;;;;;;7.64;100.00;99530.16;5067837;28;20198;-57
2023/01/12 03:23:20;;;;;;;5.47;4.97;;;;;;;7.69;100.00;99539.53;5069996;28;20196;-59
2023/01/12 03:25:50;;;;;;;6.27;5.70;;;;;;;7.68;100.00;99541.28;5069593;28;20203;-59
2023/01/12 03:28:21;;;;;;;5.43;4.90;;;;;;;7.56;100.00;99544.91;5067995;28;20652;-59
2023/01/12 03:30:55;;;;;;;5.40;4.90;;;;;;;7.59;100.00;99542.28;5069736;28;20215;-59
2023/01/12 03:33:25;;;;;;;5.37;4.97;;;;;;;7.65;100.00;99546.50;5067345;28;20212;-58
2023/01/12 03:36:01;;;;;;;5.27;4.83;;;;;;;7.61;100.00;99539.69;5069864;28;20286;-58
2023/01/12 03:38:35;;;;;;;5.50;5.00;;;;;;;7.71;100.00;99553.28;5069878;28;20188;-58
2023/01/12 03:41:07;;;;;;;5.47;4.97;;;;;;;7.69;100.00;99547.28;5067931;28;20585;-59
2023/01/12 03:43:40;;;;;;;6.30;5.57;;;;;;;7.64;100.00;99544.81;5069640;28;20191;-59
2023/01/12 03:46:14;;;;;;;5.20;4.80;;;;;;;7.56;100.00;99547.50;5069352;28;20200;-59
2023/01/12 03:48:47;;;;;;;5.47;5.07;;;;;;;7.54;100.00;99556.16;5067808;28;20191;-56
2023/01/12 03:51:18;;;;;;;5.30;4.80;;;;;;;7.54;100.00;99553.59;5069418;28;20195;-57
2023/01/12 03:53:47;;;;;;;6.33;5.03;;;;;;;7.51;100.00;99548.47;5069301;28;20220;-57
2023/01/12 03:56:18;;;;;;;5.47;5.07;;;;;;;7.52;100.00;99550.16;5069889;28;20548;-57
2023/01/12 03:58:45;;;;;;;6.23;5.37;;;;;;;7.57;100.00;99549.19;5069222;28;20196;-57
2023/01/12 04:01:13;;;;;;;5.93;5.43;;;;;;;7.49;100.00;99545.91;5069392;28;20199;-58
2023/01/12 04:03:40;;;;;;;5.97;5.47;;;;;;;7.54;100.00;99553.59;5068874;28;20676;-58
2023/01/12 04:06:08;;;;;;;5.47;5.07;;;;;;;7.53;100.00;99536.38;5069222;28;20192;-58
2023/01/12 04:08:35;;;;;;;5.27;4.87;;;;;;;7.56;100.00;99552.66;5068960;28;20188;-56
2023/01/12 04:12:09;;;;;;;5.47;5.00;;;;;;;7.55;100.00;99553.56;5068596;28;20194;-57
2023/01/12 04:13:49;;;;;;;5.77;5.30;;;;;;;7.48;100.00;99559.69;5067997;28;20332;-57
2023/01/12 04:16:16;;;;;;;5.93;5.40;;;;;;;7.38;100.00;99550.38;5066334;28;20236;-57
2023/01/12 04:18:43;;;;;;;5.83;5.33;;;;;;;7.46;100.00;99556.25;5068806;28;20227;-57
2023/01/12 04:22:41;;;;;;;5.40;4.97;;;;;;;7.57;100.00;99558.69;5068777;28;20215;-58
2023/01/12 04:23:57;;;;;;;6.10;5.53;;;;;;;7.63;100.00;99564.63;5068789;28;20595;-58
2023/01/12 04:26:24;;;;;;;6.70;5.43;;;;;;;7.67;100.00;99557.69;5068752;28;20306;-57
2023/01/12 04:28:51;;;;;;;5.80;5.30;;;;;;;7.72;100.00;99566.19;5068391;28;20199;-59
2023/01/12 04:31:18;;;;;;;6.23;5.73;;;;;;;7.82;100.00;99562.56;5068727;28;20192;-57
2023/01/12 04:33:45;;;;;;;6.33;5.73;;;;;;;7.78;100.00;99557.50;5068470;28;20215;-58
2023/01/12 04:36:13;;;;;;;15.47;8.20;;;;;;;7.79;100.00;99566.97;5068319;28;20200;-58
2023/01/12 04:38:40;;;;;;;8.60;7.10;;;;;;;7.86;100.00;99571.97;5068934;28;20783;-59
2023/01/12 04:41:08;;;;;;;6.80;5.60;;;;;;;7.82;100.00;99575.50;5068174;28;20199;-57
2023/01/12 04:43:36;;;;;;;6.67;6.00;;;;;;;7.78;100.00;99573.84;5067319;28;20188;-58
2023/01/12 04:46:06;;;;;;;6.17;5.67;;;;;;;7.58;100.00;99570.72;5067723;28;20196;-57
2023/01/12 04:48:33;;;;;;;6.00;5.50;;;;;;;7.49;100.00;99574.31;5067279;28;20765;-58
2023/01/12 04:51:01;;;;;;;6.23;5.73;;;;;;;7.43;100.00;99561.50;5067156;28;20202;-61
2023/01/12 04:53:30;;;;;;;6.13;5.57;;;;;;;7.48;100.00;99576.91;5067515;28;20222;-57
2023/01/12 04:55:56;;;;;;;6.13;5.53;;;;;;;7.57;100.00;99576.75;5067112;28;20656;-56
2023/01/12 04:58:24;;;;;;;7.07;5.97;;;;;;;7.49;100.00;99576.03;5067681;28;20203;-58
2023/01/12 05:00:50;;;;;;;5.83;5.33;;;;;;;7.58;100.00;99575.88;5066945;28;20210;-57
2023/01/12 05:03:18;;;;;;;6.43;4.97;;;;;;;7.51;100.00;99582.88;5065909;28;20200;-57
2023/01/12 05:05:45;;;;;;;6.90;5.83;;;;;;;7.59;100.00;99580.16;5068215;28;20195;-57
2023/01/12 05:11:00;;;;;;;5.80;5.30;;;;;;;7.48;100.00;99593.25;5068778;28;20207;-56
2023/01/12 05:13:29;;;;;;;5.80;5.30;;;;;;;7.44;100.00;99588.19;5068667;28;20703;-57
2023/01/12 05:15:56;;;;;;;5.60;5.20;;;;;;;7.45;100.00;99592.47;5068391;28;20202;-57
2023/01/12 05:18:23;;;;;;;5.60;5.10;;;;;;;7.60;100.00;99589.63;5069173;28;20603;-57
2023/01/12 05:20:50;;;;;;;6.10;5.50;;;;;;;7.66;100.00;99589.56;5068117;28;20206;-58
2023/01/12 05:23:17;;;;;;;5.50;5.00;;;;;;;7.70;100.00;99586.03;5067400;28;20192;-58
2023/01/12 05:25:44;;;;;;;5.57;5.17;;;;;;;7.75;100.00;99586.81;5068220;28;20199;-57
2023/01/12 05:28:12;;;;;;;5.70;5.23;;;;;;;7.76;100.00;99588.53;5068288;28;20196;-57
2023/01/12 05:30:39;;;;;;;5.30;4.80;;;;;;;7.79;100.00;99591.03;5068374;28;20196;-55
2023/01/12 05:33:05;;;;;;;5.80;5.30;;;;;;;7.79;100.00;99596.19;5068739;28;20214;-57
2023/01/12 05:35:32;;;;;;;7.27;5.47;;;;;;;7.80;100.00;99597.91;5068335;28;20200;-57
2023/01/12 05:37:59;;;;;;;6.00;5.40;;;;;;;7.71;100.00;99597.22;5068607;28;20600;-57
2023/01/12 05:40:26;;;;;;;6.40;5.37;;;;;;;7.72;100.00;99599.78;5068288;28;20438;-57
2023/01/12 05:45:39;;;;;;;6.13;5.53;;;;;;;7.73;100.00;99595.47;5068590;28;20190;-57
2023/01/12 05:48:08;;;;;;;5.20;4.80;;;;;;;7.67;100.00;99593.00;5067772;28;20218;-58
2023/01/12 05:50:35;;;;;;;7.03;5.80;;;;;;;7.65;100.00;99598.19;5068580;28;20247;-57
2023/01/12 05:53:02;;;;;;;6.07;5.67;;;;;;;7.75;100.00;99599.72;5068079;28;20199;-58
2023/01/12 05:55:29;;;;;;;5.60;5.20;;;;;;;7.75;100.00;99599.72;5069974;28;20206;-58
2023/01/12 05:57:56;;;;;;;6.70;6.10;;;;;;;7.68;100.00;99595.53;5072027;28;20192;-59
2023/01/12 06:00:23;;;;;;;6.37;5.77;;;;;;;7.75;100.00;99597.16;5072209;28;20609;-60
2023/01/12 06:02:51;;;;;;;6.63;6.03;;;;;;;7.63;100.00;99607.69;5071890;28;20295;-60
2023/01/12 06:05:18;;;;;;;6.23;5.73;;;;;;;7.60;100.00;99600.81;5071832;28;20209;-58
2023/01/12 06:07:45;;;;;;;8.10;6.60;;;;;;;7.64;100.00;99604.22;5071663;28;20196;-59
2023/01/12 06:10:12;;;;;;;6.57;5.97;;;;;;;7.67;100.00;99601.59;5071759;28;20211;-60
2023/01/12 06:15:23;;;;;;;6.33;5.83;;;;;;;7.77;100.00;99594.53;5069479;28;20288;-59
2023/01/12 06:17:52;;;;;;;7.23;5.97;;;;;;;7.78;100.00;99604.88;5071165;28;20207;-58
2023/01/12 06:20:19;;;;;;;6.47;5.87;;;;;;;7.80;100.00;99602.22;5071469;28;20200;-58
2023/01/12 06:22:46;;;;;;;6.23;5.73;;;;;;;7.79;100.00;99600.53;5071483;28;20200;-58
2023/01/12 06:25:13;;;;;;;6.30;5.73;;;;;;;7.74;100.00;99612.66;5071632;28;20265;-57
2023/01/12 06:27:40;;;;;;;8.30;5.80;;;;;;;7.71;100.00;99610.97;5071053;28;20240;-58
2023/01/12 06:30:10;;;;;;;6.37;5.77;;;;;;;7.64;100.00;99618.00;5071578;28;20206;-58
2023/01/12 06:32:37;;;;;;;6.37;5.80;;;;;;;7.75;100.00;99627.31;5071339;28;20207;-58
2023/01/12 06:35:06;;;;;;;6.83;6.23;;;;;;;7.67;100.00;99618.81;5071349;28;20316;-58
2023/01/12 06:37:33;;;;;;;6.50;5.73;;;;;;;7.74;100.00;99629.03;5070636;28;20195;-57
2023/01/12 06:40:00;;;;;;;6.43;5.93;;;;;;;7.70;100.00;99621.34;5070852;28;20294;-59
2023/01/12 06:42:30;;;;;;;5.87;5.37;;;;;;;7.76;100.00;99629.88;5068193;28;20553;-59
2023/01/12 06:44:58;;;;;;;6.70;6.03;;;;;;;7.77;100.00;99633.31;5070924;28;20490;-59
2023/01/12 06:47:26;;;;;;;7.10;6.27;;;;;;;7.85;100.00;99628.84;5071038;28;20242;-59
2023/01/12 06:49:53;;;;;;;5.93;5.43;;;;;;;7.93;100.00;99643.34;5070850;28;20203;-58
2023/01/12 06:52:24;;;;;;;6.23;5.63;;;;;;;7.98;100.00;99638.97;5071047;28;20207;-58
2023/01/12 06:54:51;;;;;;;6.80;6.10;;;;;;;7.89;100.00;99643.44;5070187;28;20211;-58
2023/01/12 06:57:18;;;;;;;6.10;5.50;;;;;;;7.85;100.00;99632.28;5070566;28;20203;-58
2023/01/12 06:59:45;;;;;;;6.93;6.43;;;;;;;7.86;100.00;99633.16;5070528;28;20200;-58
2023/01/12 07:02:14;;;;;;;6.63;6.13;;;;;;;7.95;100.00;99633.00;5070817;28;20327;-57
2023/01/12 07:04:41;;;;;;;7.20;6.33;;;;;;;8.03;100.00;99639.75;5070688;28;20199;-57
2023/01/12 07:07:10;;;;;;;6.70;6.00;;;;;;;8.19;100.00;99642.06;5059506;28;20238;-58
2023/01/12 07:09:38;;;;;;;6.80;6.10;;;;;;;8.29;100.00;99643.63;5069354;28;20227;-56
2023/01/12 07:12:05;;;;;;;6.77;6.17;;;;;;;8.25;100.00;99627.28;5069429;28;20228;-56
2023/01/12 07:14:33;;;;;;;7.73;6.90;;;;;;;8.46;100.00;99649.41;5069676;28;20647;-55
2023/01/12 07:16:59;;;;;;;5.77;5.20;;;;;;;8.36;100.00;99645.25;5068687;28;20222;-55
2023/01/12 07:19:26;;;;;;;7.40;6.53;;;;;;;8.35;100.00;99644.38;5069611;28;20242;-55
2023/01/12 07:21:53;;;;;;;6.63;6.10;;;;;;;8.39;100.00;99650.38;5068359;28;20230;-58
2023/01/12 07:24:20;;;;;;;7.73;7.03;;;;;;;8.37;100.00;99652.13;5069529;28;20226;-58
2023/01/12 07:26:49;;;;;;;7.53;6.83;;;;;;;8.45;100.00;99658.03;5069087;28;20607;-59
2023/01/12 07:29:16;;;;;;;7.20;6.00;;;;;;;8.47;100.00;99652.81;5069508;28;20288;-58
2023/01/12 07:31:44;;;;;;;6.33;5.77;;;;;;;8.35;100.00;99648.75;5069034;28;20196;-58
2023/01/12 07:34:11;;;;;;;6.93;6.00;;;;;;;8.34;100.00;99647.03;5067831;28;20266;-59
2023/01/12 07:36:38;;;;;;;6.83;6.13;;;;;;;8.34;100.00;99650.47;5068837;28;20758;-59
2023/01/12 07:39:06;;;;;;;6.93;5.63;;;;;;;8.30;100.00;99660.84;5068730;28;20198;-58
2023/01/12 07:44:18;;;;;;;7.73;5.70;;;;;;;8.30;100.00;99666.88;5068698;28;20667;-58
2023/01/12 07:46:46;;;;;;;6.27;5.77;;;;;;;8.31;100.00;99673.78;5068901;28;20204;-58
2023/01/12 07:49:13;;;;;;;6.23;5.63;;;;;;;8.23;100.00;99670.44;5068512;28;20207;-61
2023/01/12 07:51:40;;;;;;;5.97;5.47;;;;;;;7.98;100.00;99636.41;5065865;28;20207;-58
2023/01/12 07:54:07;;;;;;;5.70;5.27;;;;;;;8.28;100.00;99675.53;5063758;28;20223;-58
2023/01/12 07:56:34;;;;;;;6.73;6.13;;;;;;;8.45;100.00;99685.63;5069459;28;20584;-57
2023/01/12 07:59:01;;;;;;;6.83;6.20;;;;;;;8.50;100.00;99689.81;5068534;28;20204;-58
2023/01/12 08:01:31;;;;;;;6.80;6.20;;;;;;;8.51;100.00;99683.78;5069261;28;20198;-57
2023/01/12 08:03:58;;;;;;;6.17;5.57;;;;;;;8.54;100.00;99688.91;5069091;28;20195;-58
2023/01/12 08:06:25;;;;;;;7.83;6.57;;;;;;;8.52;100.00;99677.72;5069085;28;20218;-58
2023/01/12 08:08:53;;;;;;;6.83;6.23;;;;;;;8.63;100.00;99686.16;5066159;28;20200;-59
2023/01/12 08:11:20;;;;;;;6.60;6.00;;;;;;;8.63;100.00;99683.56;5068893;28;20192;-59
2023/01/12 08:13:47;;;;;;;7.20;6.40;;;;;;;8.65;100.00;99686.13;5068983;28;20200;-60
2023/01/12 08:16:18;;;;;;;6.87;6.27;;;;;;;8.65;100.00;99693.88;5069117;28;20188;-59
2023/01/12 08:18:51;;;;;;;8.10;6.83;;;;;;;8.83;100.00;99690.94;5067564;28;20188;-59
2023/01/12 08:21:22;;;;;;;6.70;6.00;;;;;;;8.84;100.00;99690.06;5067716;28;20211;-59
2023/01/12 08:23:51;;;;;;;6.67;6.07;;;;;;;8.89;100.00;99692.56;5067736;28;20705;-58
2023/01/12 08:26:22;;;;;;;7.17;6.57;;;;;;;8.79;100.00;99691.06;5067801;28;20216;-59
2023/01/12 08:28:53;;;;;;;6.50;5.90;;;;;;;8.81;100.00;99695.28;5068213;28;20552;-59
2023/01/12 08:31:23;;;;;;;6.43;5.83;;;;;;;8.92;100.00;99692.50;5067999;28;20202;-59
2023/01/12 08:33:53;;;;;;;6.53;5.90;;;;;;;8.93;100.00;99686.44;5067532;28;20204;-59
2023/01/12 08:36:20;;;;;;;6.03;5.50;;;;;;;9.04;100.00;99697.44;5067776;28;20200;-59
2023/01/12 08:38:48;;;;;;;6.37;5.87;;;;;;;9.07;100.00;99687.03;5067846;28;20604;-60
2023/01/12 08:41:33;;;;;;;7.00;6.23;;;;;;;9.15;100.00;99684.28;5067832;28;20192;-57
2023/01/12 08:44:05;;;;;;;63.80;41.90;;;;;;;9.24;100.00;99690.16;5065213;28;20222;-58
2023/01/12 08:46:34;;;;;;;8.50;7.13;;;;;;;9.30;100.00;99690.00;5065433;28;20230;-58
2023/01/12 08:49:03;;;;;;;7.43;6.70;;;;;;;9.26;100.00;99688.34;5066568;28;20215;-59
2023/01/12 08:51:30;;;;;;;9.57;7.60;;;;;;;9.23;100.00;99693.63;5068219;28;20696;-59
2023/01/12 08:53:57;;;;;;;10.10;8.37;;;;;;;9.27;100.00;99694.38;5067797;28;20357;-59
2023/01/12 08:56:24;;;;;;;7.53;6.83;;;;;;;9.29;100.00;99690.88;5069052;28;20222;-60
2023/01/12 08:58:51;;;;;;;6.33;5.67;;;;;;;9.47;100.00;99681.88;5068440;28;20199;-60
2023/01/12 09:01:19;;;;;;;4.93;4.53;;;;;;;9.60;100.00;99687.63;5069895;28;20578;-58
2023/01/12 09:03:47;;;;;;;9.57;7.03;;;;;;;9.66;100.00;99685.78;5068150;28;20196;-58
2023/01/12 09:06:18;;;;;;;9.67;7.43;;;;;;;9.74;99.24;99688.19;5068849;28;20202;-58
2023/01/12 09:08:46;;;;;;;8.47;6.80;;;;;;;9.78;97.38;99682.06;5068577;28;20188;-58
2023/01/12 09:11:15;;;;;;;8.73;6.83;;;;;;;9.82;97.00;99681.06;5068538;28;20282;-58
2023/01/12 09:13:42;;;;;;;6.20;5.60;;;;;;;9.95;96.79;99684.25;5068784;28;20656;-59
2023/01/12 09:16:11;;;;;;;16.10;11.80;;;;;;;9.87;96.53;99670.63;5068649;28;20223;-58
2023/01/12 09:18:38;;;;;;;17.70;10.90;;;;;;;10.03;97.05;99677.16;5068674;28;20224;-58
2023/01/12 09:21:07;;;;;;;9.50;7.77;;;;;;;10.08;96.62;99691.69;5068519;28;20210;-58
2023/01/12 09:23:36;;;;;;;6.90;5.70;;;;;;;10.15;96.06;99679.44;5065561;28;20210;-57
2023/01/12 09:26:04;;;;;;;6.10;5.50;;;;;;;9.92;95.71;99648.03;5068393;28;20735;-58
2023/01/12 09:28:31;;;;;;;6.40;5.40;;;;;;;10.10;95.36;99689.06;5068399;28;20207;-58
2023/01/12 09:31:02;;;;;;;7.80;7.10;;;;;;;10.16;95.35;99681.97;5070474;28;20198;-58
2023/01/12 09:33:30;;;;;;;8.43;7.33;;;;;;;10.18;94.64;99666.41;5070512;28;20207;-58
2023/01/12 09:36:01;;;;;;;32.60;16.63;;;;;;;10.28;95.55;99674.81;5071781;28;20223;-57
2023/01/12 09:38:28;;;;;;;30.67;16.87;;;;;;;10.34;93.94;99667.75;5072205;28;20687;-58
2023/01/12 09:40:58;;;;;;;27.53;15.77;;;;;;;10.41;93.33;99668.44;5071890;28;20257;-58
2023/01/12 09:49:02;;;;;;;12.57;8.53;;;;;;;10.44;92.61;99677.00;5072004;28;20301;-59
2023/01/12 09:51:34;;;;;;;9.77;8.17;;;;;;;10.55;92.93;99666.34;5073142;28;20192;-58
2023/01/12 09:54:03;;;;;;;10.07;7.47;;;;;;;10.57;92.76;99669.75;5071613;28;20287;-58
2023/01/12 09:56:37;;;;;;;12.10;7.67;;;;;;;10.54;92.47;99664.63;5069331;28;20212;-59
2023/01/12 09:59:38;;;;;;;6.03;5.50;;;;;;;10.63;91.45;99658.34;5071183;28;20192;-58
2023/01/12 10:02:11;;;;;;;7.73;4.70;;;;;;;10.74;90.94;99662.34;5071229;28;20198;-58
2023/01/12 10:04:39;;;;;;;7.00;6.40;;;;;;;10.77;90.84;99654.50;5071841;28;20192;-58
2023/01/12 10:07:13;;;;;;;6.47;5.90;;;;;;;10.89;90.60;99661.94;5071884;28;20210;-58
2023/01/12 10:09:41;;;;;;;7.07;6.37;;;;;;;10.91;91.38;99654.97;5072470;28;20196;-59
2023/01/12 10:12:17;;;;;;;6.33;5.73;;;;;;;10.79;91.84;99655.31;5069906;28;20199;-58
2023/01/12 10:15:04;;;;;;;6.93;6.33;;;;;;;10.77;91.99;99651.03;5051859;28;20232;-59
2023/01/12 10:17:39;;;;;;;6.97;6.37;;;;;;;10.80;92.38;99641.44;5058440;28;20216;-58
2023/01/12 10:20:17;;;;;;;10.13;7.20;;;;;;;10.79;91.35;99644.91;5072336;28;20219;-60
2023/01/12 10:22:48;;;;;;;9.77;7.27;;;;;;;10.74;92.02;99649.38;5071454;28;20219;-58
2023/01/12 10:25:21;;;;;;;6.90;6.40;;;;;;;10.82;92.24;99642.25;5072143;28;20265;-59
2023/01/12 10:27:51;;;;;;;7.03;6.30;;;;;;;10.94;91.63;99637.59;5071348;28;20232;-59
2023/01/12 10:30:20;;;;;;;8.00;7.20;;;;;;;10.90;91.62;99642.03;5072398;28;20232;-59
2023/01/12 10:32:47;;;;;;;17.73;11.53;;;;;;;10.86;91.23;99638.66;5072482;28;20582;-59
2023/01/12 10:35:16;;;;;;;13.13;9.37;;;;;;;10.73;91.46;99637.28;5072420;28;20215;-58
2023/01/12 10:37:47;;;;;;;32.93;19.07;;;;;;;10.60;92.42;99633.34;5072114;28;20196;-59
2023/01/12 10:40:31;;;;;;;30.70;18.60;;;;;;;10.67;92.83;99624.50;5072707;28;20210;-59
2023/01/12 10:46:10;;;;;;;27.73;13.23;;;;;;;10.70;92.71;99618.38;5071921;28;20196;-58
2023/01/12 10:48:38;;;;;;;18.03;12.10;;;;;;;10.76;92.65;99615.59;5072059;28;20199;-65
2023/01/12 10:51:07;;;;;;;24.73;16.53;;;;;;;10.81;92.44;99614.56;5071763;28;20196;-59
2023/01/12 10:53:42;;;;;;;19.90;14.40;;;;;;;10.86;91.91;99614.44;5072277;28;20196;-59
2023/01/12 10:56:23;;;;;;;7.23;6.53;;;;;;;10.97;90.70;99621.91;5071946;28;20263;-60
2023/01/12 10:58:58;;;;;;;6.17;5.60;;;;;;;11.10;90.00;99626.72;5071761;28;20196;-57
2023/01/12 11:01:25;;;;;;;7.87;6.50;;;;;;;11.11;89.27;99618.03;5071663;28;20199;-57
2023/01/12 11:04:04;;;;;;;12.73;8.17;;;;;;;11.10;88.31;99618.06;5071489;28;20204;-57
2023/01/12 11:06:31;;;;;;;11.43;9.30;;;;;;;11.17;88.48;99614.41;5071768;28;20192;-57
2023/01/12 11:09:16;;;;;;;13.07;8.23;;;;;;;11.25;88.36;99615.03;5071355;28;20200;-57
2023/01/12 11:11:43;;;;;;;9.10;8.07;;;;;;;11.43;88.48;99618.81;5071492;28;20192;-57
2023/01/12 11:14:25;;;;;;;7.80;6.90;;;;;;;11.47;87.86;99617.81;5070822;28;20192;-59
2023/01/12 11:16:52;;;;;;;11.00;7.57;;;;;;;11.47;87.36;99618.69;5069414;28;20219;-59
2023/01/12 11:19:23;;;;;;;8.37;6.87;;;;;;;11.69;87.46;99612.81;5070739;28;20716;-60
2023/01/12 11:21:55;;;;;;;11.70;6.20;;;;;;;11.64;88.16;99616.38;5069980;28;20591;-59
2023/01/12 11:24:35;;;;;;;8.33;7.57;;;;;;;11.54;88.35;99612.38;5071227;28;20672;-59
2023/01/12 11:27:05;;;;;;;11.37;9.23;;;;;;;11.53;88.55;99613.28;5071093;28;20238;-59
2023/01/12 11:29:41;;;;;;;8.27;6.13;;;;;;;11.59;88.12;99615.69;5071655;28;20694;-58
2023/01/12 11:32:15;;;;;;;17.33;10.93;;;;;;;11.51;88.33;99612.47;5071392;28;20644;-58
2023/01/12 11:34:57;;;;;;;38.03;17.80;;;;;;;11.39;88.77;99601.63;5070972;28;20196;-59
2023/01/12 11:37:24;;;;;;;76.83;27.37;;;;;;;11.37;88.89;99604.28;5071206;28;20290;-63
2023/01/12 11:40:01;;;;;;;74.47;27.53;;;;;;;11.42;89.03;99593.72;5070209;28;20590;-62
2023/01/12 11:45:40;;;;;;;108.43;40.90;;;;;;;11.48;88.71;99599.59;5069192;28;20690;-63
2023/01/12 11:48:20;;;;;;;86.90;35.90;;;;;;;11.51;89.23;99583.88;5067722;28;20217;-59
2023/01/12 11:50:49;;;;;;;150.67;54.27;;;;;;;11.54;89.33;99582.94;5067892;28;20192;-58
2023/01/12 11:53:21;;;;;;;68.87;27.73;;;;;;;11.49;89.23;99585.69;5070382;28;20591;-58
2023/01/12 11:55:59;;;;;;;67.60;29.37;;;;;;;11.42;89.83;99578.97;5068585;28;20224;-58
2023/01/12 11:58:34;;;;;;;24.13;13.97;;;;;;;11.43;90.19;99579.81;5067294;28;20196;-57
2023/01/12 12:01:08;;;;;;;25.20;14.10;;;;;;;11.40;89.57;99578.16;5068382;28;20191;-58
2023/01/12 12:03:54;;;;;;;24.17;14.83;;;;;;;11.41;89.72;99576.41;5069361;28;20214;-57
2023/01/12 12:06:55;;;;;;;34.90;19.50;;;;;;;11.47;89.89;99573.63;5068539;28;20200;-57
2023/01/12 12:09:44;;;;;;;25.37;14.50;;;;;;;11.63;89.52;99567.03;5058016;28;20269;-58
2023/01/12 12:12:19;;;;;;;15.80;10.93;;;;;;;11.35;89.96;99568.81;5064065;28;20203;-59
2023/01/12 12:14:58;;;;;;;18.13;12.63;;;;;;;11.39;90.68;99567.84;5066941;28;20582;-59
2023/01/12 12:17:39;;;;;;;16.47;12.97;;;;;;;11.43;90.57;99567.69;5066960;28;20686;-59
2023/01/12 12:20:14;;;;;;;15.27;12.03;;;;;;;11.56;90.64;99571.59;5066847;28;20192;-59
2023/01/12 12:23:04;;;;;;;13.50;10.70;;;;;;;11.58;90.13;99572.41;5069006;28;20192;-59